createdAt,value
2023-02-23T00:01:41.762Z,19.03
2023-02-23T00:04:10.308Z,18.53
2023-02-23T00:06:38.933Z,19.33
2023-02-23T00:09:12.317Z,18.13
2023-02-23T00:11:40.258Z,19.20
2023-02-23T00:14:08.778Z,18.93
2023-02-23T00:16:37.391Z,18.70
2023-02-23T00:19:08.137Z,18.40
2023-02-23T00:21:36.750Z,19.13
2023-02-23T00:24:08.255Z,19.13
2023-02-23T00:26:39.428Z,20.50
2023-02-23T00:29:09.916Z,18.93
2023-02-23T00:31:38.772Z,18.13
2023-02-23T00:34:07.683Z,19.03
2023-02-23T00:36:36.725Z,19.10
2023-02-23T00:39:17.929Z,18.97
2023-02-23T00:41:47.447Z,18.97
2023-02-23T00:44:16.333Z,19.50
2023-02-23T00:46:45.720Z,19.77
2023-02-23T00:49:14.646Z,20.00
2023-02-23T00:51:42.688Z,20.53
2023-02-23T00:54:13.542Z,19.90
2023-02-23T00:56:42.040Z,19.33
2023-02-23T00:59:11.606Z,19.13
2023-02-23T01:01:41.893Z,20.23
2023-02-23T01:04:10.769Z,20.40
2023-02-23T01:06:39.564Z,19.97
2023-02-23T01:09:10.142Z,20.57
2023-02-23T01:11:38.225Z,21.43
2023-02-23T01:14:06.363Z,21.30
2023-02-23T01:16:38.825Z,20.47
2023-02-23T01:19:07.506Z,23.10
2023-02-23T01:21:37.524Z,21.23
2023-02-23T01:24:06.885Z,21.60
2023-02-23T01:26:36.254Z,21.67
2023-02-23T01:29:09.053Z,22.13
2023-02-23T01:31:39.803Z,22.40
2023-02-23T01:34:09.059Z,22.20
2023-02-23T01:36:39.652Z,22.00
2023-02-23T01:39:12.102Z,22.43
2023-02-23T01:41:42.396Z,22.80
2023-02-23T01:44:50.444Z,23.63
2023-02-23T01:47:20.368Z,22.83
2023-02-23T01:49:48.613Z,22.57
2023-02-23T01:52:18.798Z,23.53
2023-02-23T01:54:51.559Z,22.67
2023-02-23T01:57:24.865Z,22.77
2023-02-23T01:59:53.738Z,23.63
2023-02-23T02:02:33.366Z,23.30
2023-02-23T02:05:02.876Z,23.50
2023-02-23T02:07:35.173Z,21.47
2023-02-23T02:10:33.516Z,22.33
2023-02-23T02:13:05.882Z,23.47
2023-02-23T02:15:38.711Z,23.83
2023-02-23T02:18:18.837Z,23.33
2023-02-23T02:21:07.793Z,24.53
2023-02-23T02:24:18.728Z,24.20
2023-02-23T02:27:00.538Z,23.47
2023-02-23T02:29:59.121Z,23.30
2023-02-23T02:33:13.664Z,24.30
2023-02-23T02:36:11.258Z,23.33
2023-02-23T02:38:53.844Z,23.17
2023-02-23T02:41:35.519Z,22.40
2023-02-23T02:44:12.024Z,22.80
2023-02-23T02:46:43.352Z,23.53
2023-02-23T02:49:17.662Z,22.47
2023-02-23T02:51:50.008Z,22.20
2023-02-23T02:54:26.524Z,22.80
2023-02-23T02:56:57.703Z,22.17
2023-02-23T02:59:43.515Z,22.87
2023-02-23T03:02:34.013Z,22.80
2023-02-23T03:05:19.649Z,22.80
2023-02-23T03:08:17.511Z,22.50
2023-02-23T03:11:19.240Z,23.10
2023-02-23T03:14:15.246Z,22.87
2023-02-23T03:17:11.576Z,23.03
2023-02-23T03:20:06.821Z,22.60
2023-02-23T03:22:58.764Z,23.17
2023-02-23T03:25:50.790Z,22.00
2023-02-23T03:28:39.842Z,22.83
2023-02-23T03:31:33.450Z,23.53
2023-02-23T03:34:28.406Z,24.63
2023-02-23T03:37:20.508Z,25.83
2023-02-23T03:40:13.083Z,24.70
2023-02-23T03:43:01.557Z,25.23
2023-02-23T03:45:49.384Z,23.07
2023-02-23T03:48:38.583Z,25.30
2023-02-23T03:51:27.772Z,24.33
2023-02-23T03:54:21.000Z,25.87
2023-02-23T03:57:09.685Z,23.40
2023-02-23T03:59:58.903Z,25.07
2023-02-23T04:02:46.854Z,24.60
2023-02-23T04:05:37.731Z,24.83
2023-02-23T04:08:28.190Z,23.40
2023-02-23T04:11:26.227Z,24.50
2023-02-23T04:13:58.519Z,26.20
2023-02-23T04:16:25.555Z,25.77
2023-02-23T04:18:55.618Z,24.93
2023-02-23T04:21:23.593Z,24.13
2023-02-23T04:23:51.520Z,25.03
2023-02-23T04:26:19.444Z,25.50
2023-02-23T04:28:47.289Z,25.00
2023-02-23T04:31:16.377Z,26.07
2023-02-23T04:33:44.299Z,27.07
2023-02-23T04:36:13.720Z,24.50
2023-02-23T04:38:41.608Z,25.17
2023-02-23T04:41:09.620Z,24.77
2023-02-23T04:43:37.589Z,25.87
2023-02-23T04:46:05.834Z,25.60
2023-02-23T04:48:33.850Z,27.03
2023-02-23T04:51:01.722Z,25.60
2023-02-23T04:53:30.973Z,24.47
2023-02-23T04:55:59.000Z,25.00
2023-02-23T04:58:27.049Z,24.93
2023-02-23T05:00:54.955Z,24.07
2023-02-23T05:03:22.956Z,24.17
2023-02-23T05:05:50.884Z,24.60
2023-02-23T05:08:18.826Z,23.03
2023-02-23T05:10:48.752Z,23.43
2023-02-23T05:13:16.615Z,24.33
2023-02-23T05:15:44.620Z,23.23
2023-02-23T05:18:12.564Z,24.43
2023-02-23T05:20:44.823Z,24.97
2023-02-23T05:23:12.992Z,24.20
2023-02-23T05:25:41.393Z,24.50
2023-02-23T05:28:10.884Z,25.27
2023-02-23T05:30:38.879Z,23.70
2023-02-23T05:33:06.949Z,22.43
2023-02-23T05:35:35.656Z,22.33
2023-02-23T05:38:03.682Z,22.73
2023-02-23T05:40:32.294Z,21.67
2023-02-23T05:43:00.498Z,23.10
2023-02-23T05:45:30.231Z,22.73
2023-02-23T05:47:58.209Z,22.53
2023-02-23T05:50:26.935Z,22.00
2023-02-23T05:52:54.871Z,20.43
2023-02-23T05:55:22.837Z,20.83
2023-02-23T05:57:51.109Z,22.50
2023-02-23T06:00:19.680Z,22.90
2023-02-23T06:02:49.983Z,25.03
2023-02-23T06:05:17.942Z,23.93
2023-02-23T06:07:45.879Z,23.70
2023-02-23T06:10:14.057Z,23.83
2023-02-23T06:12:42.141Z,24.93
2023-02-23T06:15:10.769Z,24.83
2023-02-23T06:17:38.687Z,25.70
2023-02-23T06:20:08.759Z,25.30
2023-02-23T06:22:39.549Z,25.83
2023-02-23T06:25:12.550Z,26.70
2023-02-23T06:27:42.118Z,26.07
2023-02-23T06:30:11.301Z,24.77
2023-02-23T06:32:39.503Z,26.00
2023-02-23T06:35:09.713Z,25.23
2023-02-23T06:37:38.058Z,25.57
2023-02-23T06:40:07.419Z,25.60
2023-02-23T06:42:35.992Z,24.50
2023-02-23T06:45:04.025Z,25.10
2023-02-23T06:47:31.957Z,25.40
2023-02-23T06:50:01.999Z,22.03
2023-02-23T06:52:31.216Z,24.40
2023-02-23T06:54:59.129Z,24.33
2023-02-23T06:57:28.064Z,23.43
2023-02-23T06:59:55.999Z,24.43
2023-02-23T07:02:23.953Z,24.73
2023-02-23T07:04:51.927Z,26.00
2023-02-23T07:07:19.905Z,24.87
2023-02-23T07:09:51.378Z,23.90
2023-02-23T07:12:19.289Z,24.37
2023-02-23T07:14:47.214Z,23.87
2023-02-23T07:17:15.135Z,24.97
2023-02-23T07:19:43.037Z,23.70
2023-02-23T07:22:11.119Z,24.00
2023-02-23T07:24:39.712Z,22.43
2023-02-23T07:27:08.950Z,23.30
2023-02-23T07:29:37.286Z,23.07
2023-02-23T07:32:05.886Z,23.93
2023-02-23T07:34:33.872Z,22.70
2023-02-23T07:37:01.812Z,22.73
2023-02-23T07:39:31.043Z,23.10
2023-02-23T07:41:59.082Z,22.63
2023-02-23T07:44:28.538Z,23.73
2023-02-23T07:46:56.615Z,22.67
2023-02-23T07:49:25.407Z,22.53
2023-02-23T07:51:53.343Z,22.93
2023-02-23T07:54:22.027Z,22.47
2023-02-23T07:56:49.903Z,23.43
2023-02-23T07:59:17.838Z,22.57
2023-02-23T08:01:47.187Z,22.67
2023-02-23T08:04:15.142Z,22.63
2023-02-23T08:06:43.001Z,23.03
2023-02-23T08:09:11.999Z,22.00
2023-02-23T08:11:40.465Z,23.30
2023-02-23T08:14:10.495Z,23.33
2023-02-23T08:16:38.496Z,23.20
2023-02-23T08:19:07.813Z,24.10
2023-02-23T08:21:35.669Z,23.83
2023-02-23T08:24:03.546Z,22.53
2023-02-23T08:26:31.742Z,23.23
2023-02-23T08:28:59.638Z,23.07
2023-02-23T08:31:27.821Z,20.97
2023-02-23T08:33:55.812Z,21.73
2023-02-23T08:36:25.439Z,23.30
2023-02-23T08:38:54.230Z,22.17
2023-02-23T08:41:22.737Z,22.67
2023-02-23T08:43:50.623Z,22.60
2023-02-23T08:46:20.521Z,23.47
2023-02-23T08:48:48.514Z,22.17
2023-02-23T08:51:16.586Z,23.07
2023-02-23T08:53:45.922Z,22.70
2023-02-23T08:56:17.303Z,23.03
2023-02-23T08:58:45.423Z,20.70
2023-02-23T09:01:18.977Z,22.13
2023-02-23T09:03:47.191Z,20.87
2023-02-23T09:06:17.523Z,21.60
2023-02-23T09:08:47.183Z,21.20
2023-02-23T09:11:15.052Z,20.23
2023-02-23T09:13:42.994Z,22.37
2023-02-23T09:16:11.063Z,20.60
2023-02-23T09:18:39.563Z,20.60
2023-02-23T09:21:10.913Z,20.37
2023-02-23T09:23:39.187Z,22.23
2023-02-23T09:26:09.810Z,22.20
2023-02-23T09:28:38.658Z,21.97
2023-02-23T09:31:07.683Z,23.03
2023-02-23T09:33:35.709Z,23.30
2023-02-23T09:36:07.350Z,20.53
2023-02-23T09:38:35.424Z,21.67
2023-02-23T09:41:03.427Z,23.10
2023-02-23T09:43:42.522Z,22.90
2023-02-23T09:46:17.057Z,23.67
2023-02-23T09:48:45.047Z,22.30
2023-02-23T09:51:18.732Z,24.03
2023-02-23T09:53:50.923Z,23.33
2023-02-23T09:56:26.590Z,24.77
2023-02-23T09:58:55.851Z,24.90
2023-02-23T10:01:50.784Z,25.40
2023-02-23T10:04:23.342Z,24.07
2023-02-23T10:06:58.851Z,27.10
2023-02-23T10:09:39.113Z,25.70
2023-02-23T10:12:12.753Z,25.80
2023-02-23T10:14:59.517Z,25.70
2023-02-23T10:17:40.031Z,24.30
2023-02-23T10:20:18.274Z,22.97
2023-02-23T10:22:48.826Z,22.70
2023-02-23T10:25:22.553Z,22.87
2023-02-23T10:27:51.911Z,22.27
2023-02-23T10:30:25.090Z,22.37
2023-02-23T10:33:02.418Z,21.53
2023-02-23T10:35:32.070Z,22.83
2023-02-23T10:38:02.320Z,20.77
2023-02-23T10:40:33.071Z,21.37
2023-02-23T10:43:02.405Z,19.70
2023-02-23T10:45:38.472Z,19.07
2023-02-23T10:48:09.280Z,17.90
2023-02-23T10:50:41.401Z,17.30
2023-02-23T10:53:17.094Z,16.77
2023-02-23T10:55:47.079Z,16.77
2023-02-23T10:58:18.164Z,16.83
2023-02-23T11:00:59.094Z,16.00
2023-02-23T11:03:31.110Z,17.07
2023-02-23T11:05:59.698Z,17.10
2023-02-23T11:08:31.510Z,16.13
2023-02-23T11:11:06.291Z,16.87
2023-02-23T11:13:40.150Z,16.63
2023-02-23T11:16:13.872Z,15.73
2023-02-23T11:18:43.968Z,15.73
2023-02-23T11:21:22.392Z,17.20
2023-02-23T11:23:52.602Z,16.23
2023-02-23T11:26:25.094Z,17.20
2023-02-23T11:28:56.990Z,16.93
2023-02-23T11:31:32.094Z,20.47
2023-02-23T11:34:00.747Z,22.83
2023-02-23T11:36:30.641Z,21.60
2023-02-23T11:39:06.261Z,21.90
2023-02-23T11:41:37.205Z,22.33
2023-02-23T11:44:06.467Z,21.33
2023-02-23T11:46:39.140Z,23.30
2023-02-23T11:49:09.203Z,21.53
2023-02-23T11:51:39.522Z,20.13
2023-02-23T11:54:18.196Z,21.37
2023-02-23T11:56:52.140Z,22.27
2023-02-23T11:59:29.123Z,21.80
2023-02-23T12:02:05.341Z,21.57
2023-02-23T12:04:36.983Z,21.47
2023-02-23T12:07:31.542Z,22.67
2023-02-23T12:10:06.374Z,22.40
2023-02-23T12:12:47.198Z,23.93
2023-02-23T12:15:25.262Z,23.80
2023-02-23T12:17:59.027Z,22.97
2023-02-23T12:20:31.309Z,23.57
2023-02-23T12:23:03.146Z,22.80
2023-02-23T12:25:37.176Z,24.67
2023-02-23T12:28:18.796Z,21.60
2023-02-23T12:30:52.085Z,22.60
2023-02-23T12:33:30.184Z,22.23
2023-02-23T12:36:02.913Z,22.17
2023-02-23T12:38:42.615Z,21.60
2023-02-23T12:41:14.279Z,21.50
2023-02-23T12:43:49.274Z,22.63
2023-02-23T12:46:22.851Z,21.33
2023-02-23T12:49:02.227Z,22.03
2023-02-23T12:51:35.477Z,22.87
2023-02-23T12:54:03.904Z,22.57
2023-02-23T12:56:43.794Z,22.20
2023-02-23T12:59:25.441Z,22.87
2023-02-23T13:01:56.668Z,22.33
2023-02-23T13:04:45.795Z,21.93
2023-02-23T13:07:21.376Z,22.13
2023-02-23T13:10:02.786Z,20.23
2023-02-23T13:12:49.180Z,20.87
2023-02-23T13:15:26.796Z,20.73
2023-02-23T13:18:01.496Z,21.20
2023-02-23T13:20:38.136Z,21.37
2023-02-23T13:23:15.983Z,21.07
2023-02-23T13:25:53.994Z,20.77
2023-02-23T13:28:29.785Z,20.20
2023-02-23T13:30:58.047Z,20.97
2023-02-23T13:33:41.923Z,21.77
2023-02-23T13:36:13.810Z,21.60
2023-02-23T13:38:50.948Z,22.63
2023-02-23T13:41:31.485Z,22.30
2023-02-23T13:44:08.486Z,22.03
2023-02-23T13:46:47.938Z,22.90
2023-02-23T13:49:25.404Z,20.80
2023-02-23T13:52:00.189Z,21.47
2023-02-23T13:54:34.668Z,22.70
2023-02-23T13:57:05.596Z,21.37
2023-02-23T13:59:42.404Z,22.10
2023-02-23T14:02:38.701Z,19.50
2023-02-23T14:05:16.756Z,19.77
2023-02-23T14:07:49.845Z,19.17
2023-02-23T14:10:22.752Z,17.70
2023-02-23T14:13:24.360Z,17.97
2023-02-23T14:16:14.776Z,15.53
2023-02-23T14:19:05.448Z,16.70
2023-02-23T14:21:36.141Z,16.33
2023-02-23T14:24:17.435Z,16.00
2023-02-23T14:27:38.473Z,15.63
2023-02-23T14:30:16.501Z,15.83
2023-02-23T14:32:46.695Z,15.30
2023-02-23T14:35:44.457Z,16.03
2023-02-23T14:38:24.893Z,15.53
2023-02-23T14:40:55.592Z,14.60
2023-02-23T14:43:45.007Z,15.80
2023-02-23T14:46:19.488Z,14.30
2023-02-23T14:48:59.839Z,14.50
2023-02-23T14:51:37.155Z,14.80
2023-02-23T14:54:22.508Z,15.27
2023-02-23T14:56:54.828Z,15.50
2023-02-23T14:59:24.563Z,14.97
2023-02-23T15:01:53.594Z,15.17
2023-02-23T15:04:23.925Z,15.87
2023-02-23T15:06:56.213Z,15.10
2023-02-23T15:09:33.349Z,15.73
2023-02-23T15:12:17.009Z,14.83
2023-02-23T15:14:45.818Z,14.73
2023-02-23T15:17:21.494Z,14.53
2023-02-23T15:20:06.034Z,14.73
2023-02-23T15:22:42.661Z,14.40
2023-02-23T15:25:17.581Z,13.40
2023-02-23T15:27:47.697Z,12.53
2023-02-23T15:30:22.288Z,12.57
2023-02-23T15:33:00.429Z,12.70
2023-02-23T15:35:29.187Z,12.53
2023-02-23T15:38:11.310Z,12.53
2023-02-23T15:40:42.467Z,13.03
2023-02-23T15:43:13.185Z,13.00
2023-02-23T15:45:46.742Z,13.43
2023-02-23T15:48:18.355Z,13.07
2023-02-23T15:50:50.192Z,12.60
2023-02-23T15:53:27.468Z,13.30
2023-02-23T15:56:00.774Z,14.03
2023-02-23T15:58:32.278Z,13.40
2023-02-23T16:01:06.167Z,12.80
2023-02-23T16:03:37.090Z,14.30
2023-02-23T16:06:08.674Z,13.33
2023-02-23T16:08:37.158Z,14.57
2023-02-23T16:11:13.208Z,14.03
2023-02-23T16:13:46.588Z,14.67
2023-02-23T16:16:20.210Z,15.00
2023-02-23T16:18:53.794Z,13.87
2023-02-23T16:21:24.823Z,14.33
2023-02-23T16:23:55.447Z,14.17
2023-02-23T16:26:28.894Z,14.53
2023-02-23T16:29:00.789Z,14.63
2023-02-23T16:31:43.479Z,13.87
2023-02-23T16:34:25.861Z,14.50
2023-02-23T16:36:57.745Z,14.87
2023-02-23T16:39:29.399Z,15.23
2023-02-23T16:41:58.577Z,15.43
2023-02-23T16:44:41.341Z,15.87
2023-02-23T16:47:36.197Z,15.90
2023-02-23T16:50:20.183Z,14.37
2023-02-23T16:52:51.855Z,15.23
2023-02-23T16:55:26.473Z,16.13
2023-02-23T16:57:57.548Z,15.37
2023-02-23T17:00:29.244Z,15.20
2023-02-23T17:03:00.952Z,14.97
2023-02-23T17:05:30.126Z,15.07
2023-02-23T17:07:59.010Z,14.37
2023-02-23T17:10:30.828Z,15.20
2023-02-23T17:13:02.422Z,14.57
2023-02-23T17:15:34.882Z,13.33
2023-02-23T17:18:02.828Z,13.77
2023-02-23T17:20:32.604Z,13.37
2023-02-23T17:23:02.345Z,13.10
2023-02-23T17:25:30.592Z,12.90
2023-02-23T17:27:59.151Z,12.80
2023-02-23T17:30:28.283Z,12.57
2023-02-23T17:33:00.634Z,12.13
2023-02-23T17:35:29.054Z,12.63
2023-02-23T17:37:57.114Z,11.57
2023-02-23T17:40:28.548Z,12.70
2023-02-23T17:42:57.709Z,11.30
2023-02-23T17:45:26.532Z,14.07
2023-02-23T17:47:54.811Z,12.77
2023-02-23T17:50:26.359Z,12.60
2023-02-23T17:52:54.893Z,13.07
2023-02-23T17:55:23.741Z,12.87
2023-02-23T17:57:51.793Z,12.17
2023-02-23T18:00:21.346Z,11.53
2023-02-23T18:02:49.331Z,12.77
2023-02-23T18:05:17.511Z,12.03
2023-02-23T18:07:50.322Z,12.17
2023-02-23T18:10:18.550Z,12.33
2023-02-23T18:12:46.547Z,13.30
2023-02-23T18:15:14.554Z,12.33
2023-02-23T18:17:42.531Z,11.83
2023-02-23T18:20:14.847Z,12.23
2023-02-23T18:22:43.081Z,10.63
2023-02-23T18:25:21.210Z,12.23
2023-02-23T18:27:53.874Z,12.30
2023-02-23T18:30:23.374Z,12.23
2023-02-23T18:32:52.166Z,12.10
2023-02-23T18:35:20.443Z,12.50
2023-02-23T18:37:49.664Z,11.87
2023-02-23T18:40:23.651Z,12.87
2023-02-23T18:42:52.146Z,13.63
2023-02-23T18:45:20.552Z,13.90
2023-02-23T18:47:48.743Z,13.50
2023-02-23T18:50:18.998Z,13.57
2023-02-23T18:52:48.221Z,14.03
2023-02-23T18:55:16.493Z,14.97
2023-02-23T18:57:46.703Z,14.23
2023-02-23T19:00:17.177Z,14.00
2023-02-23T19:02:47.152Z,14.60
2023-02-23T19:05:16.189Z,13.77
2023-02-23T19:07:44.676Z,14.63
2023-02-23T19:10:16.138Z,14.67
2023-02-23T19:12:45.374Z,14.40
2023-02-23T19:15:13.573Z,14.13
2023-02-23T19:17:41.677Z,15.30
2023-02-23T19:20:14.107Z,14.53
2023-02-23T19:22:42.601Z,14.43
2023-02-23T19:25:14.405Z,15.53
2023-02-23T19:27:42.726Z,15.23
2023-02-23T19:30:14.752Z,14.23
2023-02-23T19:32:43.975Z,14.70
2023-02-23T19:35:15.683Z,14.47
2023-02-23T19:37:51.785Z,14.97
2023-02-23T19:40:22.853Z,14.23
2023-02-23T19:42:53.093Z,14.40
2023-02-23T19:45:24.833Z,13.63
2023-02-23T19:47:53.425Z,13.93
2023-02-23T19:50:22.001Z,14.53
2023-02-23T19:52:50.425Z,14.57
2023-02-23T19:55:20.488Z,14.97
2023-02-23T19:57:48.698Z,15.03
2023-02-23T20:00:17.483Z,16.83
2023-02-23T20:02:54.719Z,15.57
2023-02-23T20:05:25.596Z,14.03
2023-02-23T20:07:54.824Z,14.03
2023-02-23T20:10:25.744Z,14.67
2023-02-23T20:12:54.057Z,14.43
2023-02-23T20:15:22.010Z,13.87
2023-02-23T20:17:51.675Z,14.07
2023-02-23T20:20:21.556Z,13.90
2023-02-23T20:22:53.157Z,13.70
2023-02-23T20:25:22.816Z,14.00
2023-02-23T20:27:51.659Z,13.67
2023-02-23T20:30:20.186Z,12.63
2023-02-23T20:32:50.584Z,13.20
2023-02-23T20:35:20.448Z,13.47
2023-02-23T20:37:48.358Z,11.93
2023-02-23T20:40:18.487Z,13.33
2023-02-23T20:42:48.735Z,12.97
2023-02-23T20:45:19.314Z,11.27
2023-02-23T20:47:51.812Z,12.13
2023-02-23T20:50:22.477Z,12.73
2023-02-23T20:52:51.104Z,12.67
2023-02-23T20:55:19.978Z,13.00
2023-02-23T20:57:49.450Z,13.47
2023-02-23T21:00:24.100Z,13.67
2023-02-23T21:02:55.295Z,14.73
2023-02-23T21:05:25.619Z,13.50
2023-02-23T21:07:53.847Z,14.43
2023-02-23T21:10:21.751Z,13.63
2023-02-23T21:12:49.731Z,14.90
2023-02-23T21:15:20.629Z,13.03
2023-02-23T21:17:50.396Z,13.47
2023-02-23T21:20:21.099Z,13.37
2023-02-23T21:22:50.949Z,13.73
2023-02-23T21:25:21.896Z,13.17
2023-02-23T21:27:50.423Z,13.37
2023-02-23T21:30:20.521Z,12.93
2023-02-23T21:32:51.392Z,12.57
2023-02-23T21:35:20.848Z,12.07
2023-02-23T21:37:51.302Z,11.60
2023-02-23T21:40:20.719Z,11.57
2023-02-23T21:42:49.559Z,11.90
2023-02-23T21:45:18.567Z,11.50
2023-02-23T21:47:48.164Z,11.63
2023-02-23T21:50:18.957Z,11.63
2023-02-23T21:52:48.773Z,12.00
2023-02-23T21:55:22.376Z,11.50
2023-02-23T21:57:51.341Z,12.67
2023-02-23T22:00:24.616Z,11.80
2023-02-23T22:02:52.788Z,11.43
2023-02-23T22:05:21.453Z,11.37
2023-02-23T22:07:50.806Z,11.27
2023-02-23T22:10:22.123Z,12.17
2023-02-23T22:12:55.991Z,11.93
2023-02-23T22:15:28.153Z,11.03
2023-02-23T22:17:57.164Z,11.20
2023-02-23T22:20:25.354Z,10.90
2023-02-23T22:22:53.342Z,10.10
2023-02-23T22:25:26.090Z,10.60
2023-02-23T22:27:53.984Z,10.90
2023-02-23T22:30:22.650Z,9.40
2023-02-23T22:32:51.035Z,10.10
2023-02-23T22:35:19.338Z,10.80
2023-02-23T22:37:47.590Z,10.00
2023-02-23T22:40:16.688Z,9.77
2023-02-23T22:42:49.000Z,10.23
2023-02-23T22:45:17.354Z,9.17
2023-02-23T22:47:45.572Z,9.27
2023-02-23T22:50:17.697Z,9.87
2023-02-23T22:52:46.782Z,8.80
2023-02-23T22:55:14.657Z,9.47
2023-02-23T22:57:42.594Z,10.00
2023-02-23T23:00:17.430Z,8.90
2023-02-23T23:02:45.521Z,9.40
2023-02-23T23:05:15.292Z,9.00
2023-02-23T23:07:46.282Z,8.90
2023-02-23T23:10:15.425Z,8.97
2023-02-23T23:12:43.404Z,10.60
2023-02-23T23:15:18.886Z,9.50
2023-02-23T23:17:49.148Z,9.40
2023-02-23T23:20:22.783Z,8.43
2023-02-23T23:22:51.008Z,9.53
2023-02-23T23:25:23.042Z,8.93
2023-02-23T23:27:55.335Z,8.53
2023-02-23T23:30:29.117Z,9.80
2023-02-23T23:32:57.645Z,8.93
2023-02-23T23:35:26.896Z,8.77
2023-02-23T23:37:55.003Z,9.87
2023-02-23T23:40:24.801Z,9.90
2023-02-23T23:42:53.058Z,9.13
2023-02-23T23:45:24.051Z,9.13
2023-02-23T23:47:53.580Z,9.13
2023-02-23T23:50:26.639Z,8.67
2023-02-23T23:52:55.303Z,10.27
2023-02-23T23:55:23.546Z,10.20
2023-02-23T23:57:52.113Z,10.13
